Time;durP1;ratioP1;P1;durP2;ratioP2;P2;SDS_P1;SDS_P2;PMS_P1;PMS_P2;Temp;Humidity;BMP_temperature;BMP_pressure;BME280_temperature;BME280_humidity;BME280_pressure;Samples;Min_cycle;Max_cycle;Signal;HPM_P1;HPM_P2
2022/11/03 00:00:56;;;;;;;10.25;1.90;;;;;;;11.43;100.00;101205.16;5100567;28;20047;-82
2022/11/03 00:03:21;;;;;;;21.15;2.38;;;;;;;11.49;100.00;101185.47;5085868;28;20044;-80
2022/11/03 00:06:05;;;;;;;25.48;2.92;;;;;;;11.62;100.00;101195.50;5091209;28;20040;-82
2022/11/03 00:08:34;;;;;;;21.48;2.47;;;;;;;11.50;100.00;101200.94;5051307;28;20047;-82
2022/11/03 00:11:11;;;;;;;17.00;3.00;;;;;;;11.61;100.00;101191.00;5079406;28;20036;-82
2022/11/03 00:13:38;;;;;;;16.00;1.85;;;;;;;11.67;100.00;101187.78;5068104;28;20078;-81
2022/11/03 00:16:06;;;;;;;22.00;3.10;;;;;;;11.40;100.00;101189.81;5102315;28;20083;-82
2022/11/03 00:18:32;;;;;;;17.50;2.53;;;;;;;11.41;100.00;101182.44;5071801;28;20063;-81
2022/11/03 00:21:11;;;;;;;21.13;2.38;;;;;;;11.44;100.00;101176.72;5096585;28;20043;-82
2022/11/03 00:23:39;;;;;;;17.30;2.65;;;;;;;11.56;100.00;101183.16;5069040;28;20064;-82
2022/11/03 00:26:09;;;;;;;19.15;2.20;;;;;;;11.57;100.00;101182.13;5068070;28;20036;-82
2022/11/03 00:28:35;;;;;;;17.08;2.47;;;;;;;11.37;100.00;101172.72;5086006;28;20115;-81
2022/11/03 00:31:06;;;;;;;16.48;2.47;;;;;;;11.27;100.00;101164.34;5082411;28;20084;-81
2022/11/03 00:33:32;;;;;;;11.38;2.10;;;;;;;11.18;100.00;101163.19;5121028;28;20057;-81
2022/11/03 00:36:00;;;;;;;16.90;2.15;;;;;;;11.30;100.00;101164.09;5080473;28;20044;-83
2022/11/03 00:38:25;;;;;;;19.08;2.17;;;;;;;11.34;100.00;101159.25;5051589;28;20059;-83
2022/11/03 00:41:00;;;;;;;26.95;3.15;;;;;;;11.27;100.00;101164.34;5083785;28;20063;-82
2022/11/03 00:43:27;;;;;;;19.33;2.40;;;;;;;11.26;100.00;101154.34;5104873;28;20118;-82
2022/11/03 00:45:53;;;;;;;18.27;2.42;;;;;;;11.23;100.00;101146.38;5105712;28;20020;-81
2022/11/03 00:48:29;;;;;;;15.40;2.53;;;;;;;11.17;100.00;101145.00;5075973;28;20044;-82
2022/11/03 00:51:06;;;;;;;22.02;3.17;;;;;;;11.27;100.00;101145.16;5083831;28;20478;-83
2022/11/03 00:53:34;;;;;;;18.33;2.03;;;;;;;11.30;100.00;101144.91;5086802;28;20099;-81
2022/11/03 00:56:01;;;;;;;23.90;2.30;;;;;;;11.39;100.00;101146.06;5087037;28;20028;-82
2022/11/03 00:58:27;;;;;;;26.02;4.05;;;;;;;11.32;100.00;101140.19;5087755;28;20039;-81
2022/11/03 01:01:04;;;;;;;22.40;2.28;;;;;;;11.45;100.00;101134.63;5086849;28;20380;-81
2022/11/03 01:03:35;;;;;;;16.45;1.88;;;;;;;11.33;100.00;101125.50;5104308;28;20368;-81
2022/11/03 01:08:48;;;;;;;18.25;2.30;;;;;;;11.30;100.00;101106.53;5103904;28;20028;-80
2022/11/03 01:14:01;;;;;;;23.70;2.42;;;;;;;11.38;100.00;101114.19;5122898;28;20096;-81
2022/11/03 01:16:27;;;;;;;15.98;2.03;;;;;;;11.21;100.00;101113.63;5086703;28;20425;-82
2022/11/03 01:18:53;;;;;;;25.20;2.78;;;;;;;11.33;100.00;101119.13;5104441;28;20055;-81
2022/11/03 01:21:19;;;;;;;15.73;2.33;;;;;;;11.42;100.00;101112.91;5099092;28;20071;-80
2022/11/03 01:23:47;;;;;;;17.23;2.15;;;;;;;11.45;100.00;101112.69;5100699;28;20474;-81
2022/11/03 01:26:14;;;;;;;19.55;2.80;;;;;;;11.34;100.00;101097.06;5100532;28;20034;-80
2022/11/03 01:28:42;;;;;;;13.80;1.98;;;;;;;11.37;100.00;101093.22;5081944;28;20059;-81
2022/11/03 01:31:16;;;;;;;23.77;2.70;;;;;;;11.37;100.00;101094.09;5083901;28;20037;-81
2022/11/03 01:33:44;;;;;;;15.57;3.30;;;;;;;11.45;100.00;101093.50;5080438;28;20033;-81
2022/11/03 01:36:13;;;;;;;28.05;1.88;;;;;;;11.49;100.00;101084.00;5063277;28;20032;-82
2022/11/03 01:38:39;;;;;;;14.50;1.88;;;;;;;11.47;100.00;101083.25;5079932;28;20024;-80
2022/11/03 01:41:06;;;;;;;24.30;3.50;;;;;;;11.52;100.00;101072.81;5095742;28;20087;-80
2022/11/03 01:43:33;;;;;;;24.98;3.22;;;;;;;11.57;100.00;101075.19;5082049;28;20024;-81
2022/11/03 01:46:09;;;;;;;17.08;2.47;;;;;;;11.51;100.00;101072.91;5082495;28;20031;-81
2022/11/03 01:48:40;;;;;;;21.30;1.95;;;;;;;11.35;100.00;101062.31;5119969;28;20043;-81
2022/11/03 01:51:14;;;;;;;22.27;2.95;;;;;;;11.52;100.00;101048.13;5104448;28;20099;-81
2022/11/03 01:53:43;;;;;;;16.63;1.95;;;;;;;11.59;100.00;101049.41;5087392;28;20054;-81
2022/11/03 01:56:12;;;;;;;11.35;1.80;;;;;;;11.61;100.00;101056.59;5102490;28;20039;-81
2022/11/03 01:58:40;;;;;;;18.40;3.25;;;;;;;11.65;100.00;101049.88;5086523;28;20058;-82
2022/11/03 02:01:06;;;;;;;20.75;2.90;;;;;;;11.64;100.00;101045.41;5103683;28;20474;-82
2022/11/03 02:03:41;;;;;;;19.13;2.28;;;;;;;11.69;100.00;101046.78;5103844;28;20047;-82
2022/11/03 02:06:07;;;;;;;16.17;1.92;;;;;;;11.66;100.00;101033.31;5083557;28;20020;-81
2022/11/03 02:08:42;;;;;;;14.75;1.77;;;;;;;11.49;100.00;101028.31;5085606;28;20043;-81
2022/11/03 02:13:52;;;;;;;16.35;2.75;;;;;;;11.52;100.00;101017.09;5083769;28;20497;-80
2022/11/03 02:16:20;;;;;;;30.05;3.33;;;;;;;11.44;100.00;101017.69;5086801;28;20059;-81
2022/11/03 02:18:46;;;;;;;20.92;3.22;;;;;;;11.65;100.00;101016.97;5084637;28;20437;-81
2022/11/03 02:21:37;;;;;;;14.90;1.83;;;;;;;11.61;100.00;101007.25;5065759;28;20048;-83
2022/11/03 02:24:18;;;;;;;15.32;2.08;;;;;;;11.69;100.00;101012.97;5069326;28;20061;-81
2022/11/03 02:26:47;;;;;;;18.77;2.35;;;;;;;11.59;100.00;100997.28;5117224;28;20474;-81
2022/11/03 02:29:13;;;;;;;13.43;2.03;;;;;;;11.67;100.00;101007.63;5109885;28;20039;-83
2022/11/03 02:31:48;;;;;;;26.63;2.40;;;;;;;11.66;100.00;101008.63;5106828;28;20031;-81
2022/11/03 02:34:20;;;;;;;14.10;2.17;;;;;;;11.60;100.00;101011.88;5107918;28;20226;-81
2022/11/03 02:36:53;;;;;;;12.15;2.00;;;;;;;11.58;100.00;101006.50;5086931;28;20092;-82
2022/11/03 02:39:28;;;;;;;20.27;3.08;;;;;;;11.56;100.00;100997.53;5087065;28;20067;-82
2022/11/03 02:41:58;;;;;;;10.85;1.90;;;;;;;11.62;100.00;101000.78;5101502;28;20047;-83
2022/11/03 02:44:25;;;;;;;20.02;1.95;;;;;;;11.63;100.00;100988.81;5087480;28;20032;-82
2022/11/03 02:46:57;;;;;;;21.60;2.40;;;;;;;11.70;100.00;100979.94;5105918;28;20039;-81
2022/11/03 02:49:23;;;;;;;12.10;1.77;;;;;;;11.81;100.00;100983.69;5084608;28;20067;-81
2022/11/03 02:52:01;;;;;;;21.00;2.58;;;;;;;11.75;100.00;100971.34;5105042;28;20130;-82
2022/11/03 02:54:42;;;;;;;17.60;2.13;;;;;;;11.82;100.00;100972.56;5107198;28;20027;-81
2022/11/03 02:57:20;;;;;;;26.02;1.73;;;;;;;11.87;100.00;100970.34;5106890;28;20035;-82
2022/11/03 02:59:55;;;;;;;16.15;2.35;;;;;;;11.94;100.00;100959.75;5106109;28;20399;-82
2022/11/03 03:02:31;;;;;;;15.25;2.30;;;;;;;11.90;100.00;100963.69;5089198;28;20031;-82
2022/11/03 03:05:00;;;;;;;16.55;2.72;;;;;;;11.92;100.00;100957.13;5106494;28;20059;-82
2022/11/03 03:07:30;;;;;;;15.18;1.77;;;;;;;11.90;100.00;100961.84;5085850;28;20032;-81
2022/11/03 03:10:01;;;;;;;18.63;2.05;;;;;;;11.98;100.00;100960.38;5106360;28;20088;-81
2022/11/03 03:12:27;;;;;;;23.20;2.05;;;;;;;11.98;100.00;100950.25;5089413;28;20042;-82
2022/11/03 03:14:55;;;;;;;18.73;2.83;;;;;;;11.94;100.00;100951.53;5072041;28;20032;-81
2022/11/03 03:17:44;;;;;;;35.20;4.80;;;;;;;12.04;100.00;100951.63;5089522;28;20332;-82
2022/11/03 03:20:33;;;;;;;17.85;2.72;;;;;;;12.09;100.00;100944.72;5123350;28;20048;-81
2022/11/03 03:23:22;;;;;;;25.98;2.42;;;;;;;12.08;100.00;100937.50;5069575;28;20056;-83
2022/11/03 03:25:53;;;;;;;23.00;2.55;;;;;;;12.07;100.00;100937.66;5085193;28;20391;-82
2022/11/03 03:28:24;;;;;;;16.98;2.42;;;;;;;12.04;100.00;100935.16;5120096;28;20077;-81
2022/11/03 03:30:53;;;;;;;13.00;2.05;;;;;;;12.16;100.00;100928.63;5104361;28;20038;-81
2022/11/03 03:33:20;;;;;;;26.25;2.95;;;;;;;12.08;100.00;100918.28;5091179;28;20483;-82
2022/11/03 03:35:49;;;;;;;17.05;2.10;;;;;;;12.14;100.00;100930.63;5078822;28;20040;-82
2022/11/03 03:38:24;;;;;;;22.05;3.17;;;;;;;12.16;100.00;100928.63;5076130;28;20023;-81
2022/11/03 03:40:53;;;;;;;18.58;2.20;;;;;;;12.17;100.00;100941.34;5087217;28;20051;-81
2022/11/03 03:43:22;;;;;;;16.02;3.00;;;;;;;12.05;100.00;100921.31;5105113;28;20031;-82
2022/11/03 03:45:50;;;;;;;17.75;2.20;;;;;;;12.15;100.00;100918.66;5071531;28;20059;-82
2022/11/03 03:48:16;;;;;;;24.20;2.20;;;;;;;12.08;100.00;100915.53;5094804;28;20036;-82
2022/11/03 03:50:45;;;;;;;23.92;2.55;;;;;;;11.91;100.00;100907.84;5096521;28;20039;-81
2022/11/03 03:53:14;;;;;;;16.65;2.53;;;;;;;12.02;100.00;100907.84;5066987;28;20494;-82
2022/11/03 03:55:45;;;;;;;18.35;2.50;;;;;;;12.11;100.00;100904.28;5055370;28;20027;-82
2022/11/03 03:58:12;;;;;;;18.60;2.75;;;;;;;12.21;100.00;100890.66;5099985;28;20028;-82
2022/11/03 04:00:41;;;;;;;16.20;1.63;;;;;;;12.31;100.00;100899.88;5079720;28;20032;-81
2022/11/03 04:03:16;;;;;;;18.83;3.20;;;;;;;12.24;100.00;100895.88;5102110;28;20036;-82
2022/11/03 04:05:42;;;;;;;23.75;2.78;;;;;;;12.30;100.00;100881.66;5103437;28;20036;-83
2022/11/03 04:08:09;;;;;;;18.38;2.10;;;;;;;12.23;100.00;100874.97;5064800;28;20077;-82
2022/11/03 04:10:34;;;;;;;17.75;2.20;;;;;;;12.19;100.00;100887.19;5089761;28;20498;-84
2022/11/03 04:23:42;;;;;;;18.70;2.28;;;;;;;12.21;100.00;100876.94;5093961;28;20070;-82
2022/11/03 04:26:16;;;;;;;25.67;2.95;;;;;;;12.20;100.00;100874.31;5071980;28;20023;-81
2022/11/03 04:28:42;;;;;;;24.42;2.60;;;;;;;12.17;100.00;100880.97;5086695;28;20372;-82
2022/11/03 04:31:13;;;;;;;19.30;2.33;;;;;;;12.09;100.00;100869.78;5085440;28;20467;-82
2022/11/03 04:33:40;;;;;;;13.85;2.13;;;;;;;11.84;100.00;100859.94;5103142;28;20040;-81
2022/11/03 04:36:23;;;;;;;13.75;1.80;;;;;;;12.03;100.00;100856.56;5101084;28;20046;-81
2022/11/03 04:38:51;;;;;;;23.63;3.13;;;;;;;12.16;100.00;100857.25;5106359;28;20034;-82
2022/11/03 04:41:16;;;;;;;19.50;2.15;;;;;;;12.06;100.00;100850.81;5087431;28;20036;-83
2022/11/03 04:43:44;;;;;;;14.50;2.28;;;;;;;11.93;100.00;100848.25;5088067;28;20032;-80
2022/11/03 04:46:15;;;;;;;17.02;2.05;;;;;;;11.99;100.00;100836.75;5105410;28;20080;-83
2022/11/03 04:48:42;;;;;;;15.27;3.10;;;;;;;12.05;100.00;100835.34;5072189;28;20043;-82
2022/11/03 04:51:18;;;;;;;32.42;3.75;;;;;;;12.06;100.00;100842.59;5122385;28;20027;-81
2022/11/03 04:53:48;;;;;;;20.55;3.40;;;;;;;12.11;100.00;100837.56;5093141;28;20040;-82
2022/11/03 04:56:21;;;;;;;18.27;2.83;;;;;;;12.19;100.00;100837.78;5112917;28;20027;-82
2022/11/03 04:58:47;;;;;;;23.35;2.70;;;;;;;12.14;100.00;100826.31;5105545;28;20032;-83
2022/11/03 05:01:20;;;;;;;19.67;2.40;;;;;;;11.89;100.00;100838.50;5099416;28;20040;-83
2022/11/03 05:03:49;;;;;;;16.55;3.13;;;;;;;11.88;100.00;100839.50;5086288;28;20020;-82
2022/11/03 05:06:25;;;;;;;22.60;2.90;;;;;;;11.84;100.00;100822.44;5094620;28;20068;-83
2022/11/03 05:09:16;;;;;;;22.38;2.08;;;;;;;11.95;100.00;100825.19;5088348;28;20487;-82
2022/11/03 05:11:45;;;;;;;20.45;1.98;;;;;;;11.80;100.00;100806.38;5102495;28;20047;-82
2022/11/03 05:14:15;;;;;;;19.42;2.50;;;;;;;11.80;100.00;100815.47;5085732;28;20096;-82
2022/11/03 05:16:41;;;;;;;19.73;3.67;;;;;;;11.90;100.00;100812.81;5069566;28;20467;-81
2022/11/03 05:19:15;;;;;;;18.92;2.65;;;;;;;11.88;100.00;100807.44;5086073;28;20024;-82
2022/11/03 05:21:40;;;;;;;20.10;2.50;;;;;;;12.13;100.00;100805.34;5107598;28;20044;-82
2022/11/03 05:24:13;;;;;;;23.80;3.05;;;;;;;12.29;100.00;100803.03;5125312;28;20042;-80
2022/11/03 05:26:39;;;;;;;14.27;2.28;;;;;;;12.14;100.00;100798.88;5110081;28;20092;-80
2022/11/03 05:29:29;;;;;;;23.25;2.70;;;;;;;12.24;100.00;100796.19;5071385;28;20035;-82
2022/11/03 05:31:55;;;;;;;18.45;2.30;;;;;;;12.29;100.00;100789.28;5071101;28;20051;-81
2022/11/03 05:34:24;;;;;;;29.80;2.95;;;;;;;11.90;100.00;100786.25;5066954;28;20024;-81
2022/11/03 05:36:50;;;;;;;34.50;4.03;;;;;;;11.90;100.00;100783.50;5123663;28;20031;-81
2022/11/03 05:39:36;;;;;;;29.08;3.22;;;;;;;11.97;100.00;100781.16;5104948;28;20085;-82
2022/11/03 05:42:13;;;;;;;26.50;2.90;;;;;;;11.83;100.00;100779.53;5107094;28;20498;-82
2022/11/03 05:44:39;;;;;;;26.98;3.20;;;;;;;11.63;100.00;100773.03;5090026;28;20032;-82
2022/11/03 05:47:13;;;;;;;20.73;3.28;;;;;;;11.61;100.00;100763.16;5083109;28;20034;-80
2022/11/03 05:49:39;;;;;;;25.75;3.50;;;;;;;11.73;100.00;100757.50;5092951;28;20032;-80
2022/11/03 05:52:12;;;;;;;36.55;2.80;;;;;;;11.68;100.00;100756.19;5086598;28;20057;-80
2022/11/03 05:54:38;;;;;;;28.90;4.25;;;;;;;11.54;100.00;100760.97;5071699;28;20035;-82
2022/11/03 05:57:10;;;;;;;21.45;2.92;;;;;;;11.57;100.00;100757.06;5091949;28;20032;-81
2022/11/03 05:59:36;;;;;;;23.42;3.17;;;;;;;11.53;100.00;100747.38;5105281;28;20383;-80
2022/11/03 06:02:05;;;;;;;25.25;3.25;;;;;;;11.57;100.00;100744.22;5124841;28;20036;-79
2022/11/03 06:04:36;;;;;;;22.90;3.17;;;;;;;11.53;100.00;100734.53;5106808;28;20091;-82
2022/11/03 06:07:04;;;;;;;15.73;2.55;;;;;;;11.71;100.00;100743.06;5087947;28;20040;-80
2022/11/03 06:09:32;;;;;;;26.20;3.95;;;;;;;11.63;100.00;100725.53;5107225;28;20028;-80
2022/11/03 06:12:00;;;;;;;26.60;3.58;;;;;;;11.55;100.00;100738.00;5089691;28;20061;-81
2022/11/03 06:14:29;;;;;;;31.42;3.58;;;;;;;11.62;100.00;100737.50;5089495;28;20031;-80
2022/11/03 06:16:58;;;;;;;23.00;3.25;;;;;;;11.70;100.00;100734.97;5091755;28;20391;-82
2022/11/03 06:19:28;;;;;;;23.67;3.78;;;;;;;11.57;100.00;100725.03;5093376;28;20424;-81
2022/11/03 06:21:57;;;;;;;20.85;3.00;;;;;;;11.69;100.00;100722.25;5104811;28;20126;-80
2022/11/03 06:24:28;;;;;;;24.95;2.85;;;;;;;11.74;100.00;100726.34;5089922;28;20042;-82
2022/11/03 06:26:55;;;;;;;21.52;3.58;;;;;;;11.87;100.00;100714.28;5113328;28;20027;-81
2022/11/03 06:29:21;;;;;;;27.70;3.60;;;;;;;11.98;100.00;100710.66;5086101;28;20032;-80
2022/11/03 06:31:49;;;;;;;39.63;5.00;;;;;;;11.91;100.00;100716.69;5066058;28;20122;-80
2022/11/03 06:34:41;;;;;;;27.90;2.50;;;;;;;11.97;100.00;100706.16;5116915;28;20036;-82
2022/11/03 06:37:17;;;;;;;25.10;3.60;;;;;;;11.88;100.00;100694.97;5115123;28;20129;-81
2022/11/03 06:39:43;;;;;;;37.25;4.30;;;;;;;11.88;100.00;100689.47;5106880;28;20376;-80
2022/11/03 06:42:14;;;;;;;19.52;3.75;;;;;;;11.99;100.00;100690.47;5084496;28;20149;-81
2022/11/03 06:44:46;;;;;;;36.72;4.05;;;;;;;12.06;100.00;100680.66;5104670;28;20043;-80
2022/11/03 06:47:27;;;;;;;25.52;3.00;;;;;;;12.06;100.00;100684.28;5067241;28;20035;-82
2022/11/03 06:49:58;;;;;;;23.80;3.17;;;;;;;12.10;100.00;100691.25;5114671;28;20042;-82
2022/11/03 06:52:36;;;;;;;31.67;4.05;;;;;;;12.15;100.00;100693.59;5067636;28;20095;-82
2022/11/03 06:55:08;;;;;;;25.73;4.07;;;;;;;12.23;100.00;100692.88;5080814;28;20198;-81
2022/11/03 06:57:37;;;;;;;38.70;3.80;;;;;;;12.24;100.00;100679.03;5119711;28;20057;-83
2022/11/03 07:00:20;;;;;;;27.58;3.67;;;;;;;12.27;100.00;100684.25;5097290;28;20403;-82
2022/11/03 07:02:51;;;;;;;27.95;4.72;;;;;;;12.39;100.00;100689.66;5087159;28;20098;-82
2022/11/03 07:05:22;;;;;;;32.63;4.68;;;;;;;12.55;100.00;100675.41;5100956;28;20035;-82
2022/11/03 07:07:51;;;;;;;30.50;4.88;;;;;;;12.38;100.00;100679.66;5083596;28;20031;-82
2022/11/03 07:10:17;;;;;;;33.30;4.53;;;;;;;12.43;100.00;100678.25;5088332;28;20441;-82
2022/11/03 07:12:42;;;;;;;32.33;3.90;;;;;;;12.45;100.00;100675.38;5086412;28;20087;-81
2022/11/03 07:15:23;;;;;;;34.22;4.60;;;;;;;12.36;100.00;100665.22;5095561;28;20036;-83
2022/11/03 07:17:49;;;;;;;32.88;4.13;;;;;;;12.49;100.00;100677.72;5069078;28;20039;-82
2022/11/03 07:20:16;;;;;;;23.10;2.90;;;;;;;12.40;100.00;100674.94;5067243;28;20023;-83
2022/11/03 07:22:42;;;;;;;37.67;4.00;;;;;;;12.35;100.00;100677.19;5055663;28;20056;-83
2022/11/03 07:25:19;;;;;;;31.08;3.58;;;;;;;12.35;100.00;100685.41;5084795;28;20066;-83
2022/11/03 07:27:49;;;;;;;46.13;5.25;;;;;;;12.25;100.00;100672.53;5114097;28;20433;-82
2022/11/03 07:30:25;;;;;;;31.00;3.60;;;;;;;12.29;100.00;100671.25;5103658;28;20429;-82
2022/11/03 07:32:52;;;;;;;33.50;4.45;;;;;;;12.38;100.00;100669.56;5102342;28;20074;-81
2022/11/03 07:35:26;;;;;;;46.00;4.68;;;;;;;12.35;100.00;100669.84;5067075;28;20043;-83
2022/11/03 07:37:53;;;;;;;22.83;4.05;;;;;;;12.45;100.00;100658.91;5081376;28;20174;-82
2022/11/03 07:40:24;;;;;;;22.30;4.43;;;;;;;12.54;100.00;100663.53;5087740;28;20035;-80
2022/11/03 07:42:51;;;;;;;28.10;3.80;;;;;;;12.51;100.00;100652.84;5101573;28;20028;-81
2022/11/03 07:45:38;;;;;;;25.80;4.80;;;;;;;12.55;100.00;100648.81;5067464;28;20028;-82
2022/11/03 07:48:46;;;;;;;29.90;4.68;;;;;;;12.63;100.00;100645.38;5071395;28;20505;-81
2022/11/03 07:51:30;;;;;;;23.67;3.75;;;;;;;12.55;100.00;100634.22;5104593;28;20054;-82
2022/11/03 07:54:02;;;;;;;26.25;4.13;;;;;;;12.54;100.00;100636.06;5067791;28;20039;-81
2022/11/03 07:56:58;;;;;;;32.45;3.67;;;;;;;12.76;100.00;100640.50;5078793;28;20027;-82
2022/11/03 07:59:37;;;;;;;35.65;6.03;;;;;;;12.79;100.00;100636.56;5068651;28;20447;-81
2022/11/03 08:02:22;;;;;;;36.55;4.72;;;;;;;12.74;100.00;100645.25;5088200;28;20440;-82
2022/11/03 08:04:48;;;;;;;33.08;3.15;;;;;;;12.68;100.00;100643.94;5084889;28;20024;-81
2022/11/03 08:07:14;;;;;;;18.20;3.60;;;;;;;12.72;100.00;100647.25;5051675;28;20392;-82
2022/11/03 08:09:39;;;;;;;33.88;4.65;;;;;;;12.48;100.00;100647.66;5102946;28;20035;-81
2022/11/03 08:12:05;;;;;;;27.13;4.15;;;;;;;12.60;100.00;100657.50;5104545;28;20040;-82
2022/11/03 08:14:30;;;;;;;38.40;4.03;;;;;;;12.67;100.00;100638.56;5105707;28;20066;-83
2022/11/03 08:16:56;;;;;;;33.47;3.85;;;;;;;12.66;100.00;100639.59;5087442;28;20028;-81
2022/11/03 08:19:21;;;;;;;30.65;3.10;;;;;;;12.75;100.00;100629.63;5070986;28;20032;-81
2022/11/03 08:21:47;;;;;;;28.77;4.10;;;;;;;12.73;100.00;100623.44;5070418;28;20066;-82
2022/11/03 08:24:12;;;;;;;25.60;3.78;;;;;;;12.71;100.00;100626.31;5086702;28;20027;-82
2022/11/03 08:26:38;;;;;;;33.85;4.00;;;;;;;12.78;100.00;100616.47;5104781;28;20050;-82
2022/11/03 08:29:03;;;;;;;39.03;3.72;;;;;;;12.83;100.00;100605.06;5057433;28;20032;-82
2022/11/03 08:31:28;;;;;;;31.75;3.33;;;;;;;12.94;100.00;100596.69;5066535;28;20035;-82
2022/11/03 08:33:54;;;;;;;32.70;4.40;;;;;;;12.74;100.00;100586.69;5066966;28;20051;-81
2022/11/03 08:36:19;;;;;;;27.77;4.60;;;;;;;12.72;100.00;100588.72;5084175;28;20491;-81
2022/11/03 08:38:45;;;;;;;33.88;4.70;;;;;;;12.86;100.00;100582.81;5034958;28;20024;-80
2022/11/03 08:41:10;;;;;;;30.65;5.25;;;;;;;12.88;100.00;100580.78;5067680;28;20400;-81
2022/11/03 08:43:36;;;;;;;37.83;4.60;;;;;;;12.79;100.00;100568.78;5085700;28;20039;-82
2022/11/03 08:46:01;;;;;;;31.20;3.75;;;;;;;12.88;100.00;100556.91;5103077;28;20024;-82
2022/11/03 08:48:27;;;;;;;30.00;4.57;;;;;;;12.95;100.00;100559.09;5098274;28;20043;-81
2022/11/03 08:50:53;;;;;;;35.78;3.90;;;;;;;13.02;100.00;100554.75;5070160;28;20039;-81
2022/11/03 08:53:20;;;;;;;31.70;5.60;;;;;;;13.05;100.00;100543.44;5104905;28;20024;-82
2022/11/03 08:55:46;;;;;;;35.17;6.95;;;;;;;13.02;100.00;100549.25;5087002;28;20119;-81
2022/11/03 08:58:11;;;;;;;27.98;4.18;;;;;;;13.06;100.00;100526.81;5106961;28;20067;-81
2022/11/03 09:00:37;;;;;;;19.58;2.97;;;;;;;13.18;100.00;100541.28;5091654;28;20080;-81
2022/11/03 09:03:03;;;;;;;37.60;3.60;;;;;;;13.39;100.00;100526.53;5127741;28;20035;-81
2022/11/03 09:05:28;;;;;;;35.13;4.45;;;;;;;13.57;100.00;100524.72;5092184;28;20072;-81
2022/11/03 09:07:54;;;;;;;29.75;3.58;;;;;;;13.66;100.00;100511.09;5085873;28;20032;-81
2022/11/03 09:10:22;;;;;;;21.73;3.63;;;;;;;13.66;100.00;100514.72;5089066;28;20032;-82
2022/11/03 09:12:48;;;;;;;28.67;4.47;;;;;;;13.47;100.00;100484.53;5088058;28;20083;-81
2022/11/03 09:15:13;;;;;;;21.85;3.45;;;;;;;13.81;100.00;100492.19;5071398;28;20148;-81
2022/11/03 09:17:39;;;;;;;31.48;4.82;;;;;;;13.77;100.00;100488.91;5070893;28;20028;-82
2022/11/03 09:20:05;;;;;;;23.70;4.63;;;;;;;13.88;100.00;100485.09;5088988;28;20032;-81
2022/11/03 09:22:31;;;;;;;25.58;3.75;;;;;;;13.75;100.00;100489.03;5072541;28;20044;-81
2022/11/03 09:24:57;;;;;;;25.48;3.40;;;;;;;13.65;100.00;100471.72;5075042;28;20494;-83
2022/11/03 09:27:23;;;;;;;29.48;4.65;;;;;;;13.70;100.00;100455.63;5078736;28;20036;-82
2022/11/03 09:29:48;;;;;;;21.65;2.97;;;;;;;13.73;100.00;100457.22;5096719;28;20031;-82
2022/11/03 09:32:14;;;;;;;29.55;3.80;;;;;;;13.75;100.00;100441.41;5070605;28;20039;-81
2022/11/03 09:34:39;;;;;;;25.42;3.65;;;;;;;13.77;100.00;100433.84;5121661;28;20028;-82
2022/11/03 09:37:05;;;;;;;20.67;3.03;;;;;;;13.90;100.00;100433.50;5087868;28;20070;-80
2022/11/03 09:39:30;;;;;;;27.15;3.70;;;;;;;13.85;100.00;100416.59;5088686;28;20028;-82
2022/11/03 09:41:56;;;;;;;23.88;2.75;;;;;;;13.70;100.00;100383.22;5054059;28;20065;-82
2022/11/03 09:44:23;;;;;;;25.40;4.20;;;;;;;13.80;100.00;100397.78;5081491;28;20094;-81
2022/11/03 09:46:50;;;;;;;16.85;3.05;;;;;;;13.89;100.00;100410.63;5091296;28;20368;-81
2022/11/03 09:49:18;;;;;;;24.17;2.65;;;;;;;14.01;100.00;100413.16;5088317;28;20032;-81
2022/11/03 09:51:44;;;;;;;22.92;3.63;;;;;;;14.03;100.00;100394.59;5087593;28;20561;-81
2022/11/03 09:54:14;;;;;;;21.73;3.65;;;;;;;14.01;100.00;100392.00;5070675;28;20077;-82
2022/11/03 09:56:41;;;;;;;21.75;3.55;;;;;;;13.85;100.00;100367.06;5071339;28;20032;-82
2022/11/03 09:59:21;;;;;;;21.17;2.42;;;;;;;13.91;100.00;100396.72;5087669;28;20039;-81
2022/11/03 10:01:49;;;;;;;15.75;2.67;;;;;;;13.96;100.00;100388.84;5088156;28;20040;-81
2022/11/03 10:04:35;;;;;;;20.85;2.95;;;;;;;14.02;100.00;100385.50;5070386;28;20051;-81
2022/11/03 10:07:01;;;;;;;30.42;3.28;;;;;;;14.12;100.00;100377.16;5087161;28;20036;-82
2022/11/03 10:09:28;;;;;;;23.15;3.20;;;;;;;14.21;100.00;100378.09;5073120;28;20146;-82
2022/11/03 10:11:54;;;;;;;21.70;2.78;;;;;;;14.01;100.00;100369.13;5089749;28;20102;-81
2022/11/03 10:14:22;;;;;;;20.42;3.30;;;;;;;13.88;100.00;100356.59;5106641;28;20027;-82
2022/11/03 10:16:54;;;;;;;18.40;2.60;;;;;;;13.97;100.00;100363.06;5106921;28;20091;-82
2022/11/03 10:19:20;;;;;;;;;;;;;;;14.19;100.00;100363.63;5090870;28;20066;-82
2022/11/03 10:21:45;;;;;;;18.60;2.85;;;;;;;14.10;100.00;100355.28;5089370;28;20271;-81
2022/11/03 10:24:11;;;;;;;27.70;4.00;;;;;;;14.22;100.00;100355.91;5085929;28;20426;-80
2022/11/03 10:26:48;;;;;;;14.80;2.72;;;;;;;14.20;100.00;100357.09;5073339;28;20068;-81
2022/11/03 10:29:19;;;;;;;21.00;2.53;;;;;;;14.27;100.00;100337.03;5105873;28;20368;-82
2022/11/03 10:31:48;;;;;;;18.70;2.63;;;;;;;14.29;100.00;100336.88;5105935;28;20539;-82
2022/11/03 10:34:24;;;;;;;15.07;2.75;;;;;;;14.28;100.00;100327.75;5123870;28;20096;-82
2022/11/03 10:36:50;;;;;;;29.85;4.53;;;;;;;14.36;100.00;100337.09;5103775;28;20061;-83
2022/11/03 10:39:28;;;;;;;12.80;2.28;;;;;;;14.28;100.00;100327.75;5070489;28;20036;-82
2022/11/03 10:41:58;;;;;;;20.45;3.17;;;;;;;14.29;100.00;100317.59;5069811;28;20032;-82
2022/11/03 10:44:27;;;;;;;13.15;3.30;;;;;;;14.43;100.00;100316.13;5070043;28;20119;-81
2022/11/03 10:47:03;;;;;;;15.43;2.70;;;;;;;14.35;100.00;100297.69;5104723;28;20077;-82
2022/11/03 10:49:35;;;;;;;12.05;2.85;;;;;;;14.32;100.00;100289.75;5068919;28;20487;-81
2022/11/03 10:52:25;;;;;;;11.68;2.63;;;;;;;14.46;100.00;100297.44;5123919;28;20031;-82
2022/11/03 10:54:53;;;;;;;19.27;3.15;;;;;;;14.47;100.00;100290.03;5089484;28;20364;-82
2022/11/03 10:57:20;;;;;;;23.88;2.58;;;;;;;14.28;100.00;100285.56;5117950;28;20032;-82
2022/11/03 10:59:50;;;;;;;12.25;2.20;;;;;;;14.19;100.00;100275.53;5086519;28;20114;-82
2022/11/03 11:02:25;;;;;;;16.88;2.72;;;;;;;14.32;100.00;100268.56;5093384;28;20059;-80
2022/11/03 11:05:00;;;;;;;22.45;2.88;;;;;;;14.43;100.00;100272.06;5105957;28;20027;-82
2022/11/03 11:07:39;;;;;;;16.90;2.63;;;;;;;14.33;100.00;100267.56;5124455;28;20039;-82
2022/11/03 11:10:28;;;;;;;17.75;2.58;;;;;;;14.42;100.00;100270.38;5106240;28;20363;-82
2022/11/03 11:13:22;;;;;;;10.35;2.88;;;;;;;14.51;100.00;100264.75;5104163;28;20406;-82
2022/11/03 11:15:55;;;;;;;12.95;2.40;;;;;;;14.59;100.00;100263.06;5085508;28;20036;-81
2022/11/03 11:18:33;;;;;;;17.08;2.38;;;;;;;14.56;100.00;100267.03;5068570;28;20517;-83
2022/11/03 11:20:59;;;;;;;21.60;3.63;;;;;;;14.61;100.00;100261.03;5081845;28;20046;-81
2022/11/03 11:23:27;;;;;;;16.33;2.65;;;;;;;14.66;100.00;100251.28;5088680;28;20035;-81
2022/11/03 11:26:08;;;;;;;20.98;3.42;;;;;;;14.71;100.00;100256.28;5123317;28;20024;-81
2022/11/03 11:28:40;;;;;;;19.88;2.55;;;;;;;14.73;100.00;100240.44;5124814;28;20106;-82
2022/11/03 11:31:31;;;;;;;20.23;2.70;;;;;;;14.84;100.00;100245.69;5125027;28;20028;-81
2022/11/03 11:34:15;;;;;;;16.30;3.10;;;;;;;14.86;100.00;100246.38;5090499;28;20532;-81
2022/11/03 11:37:02;;;;;;;13.60;2.40;;;;;;;14.94;100.00;100231.78;5105276;28;20035;-81
2022/11/03 11:39:29;;;;;;;15.35;2.83;;;;;;;15.02;100.00;100236.44;5047771;28;20393;-83
2022/11/03 11:42:18;;;;;;;12.35;2.70;;;;;;;15.04;100.00;100232.50;5123789;28;20028;-82
2022/11/03 11:44:55;;;;;;;8.50;2.17;;;;;;;15.01;100.00;100227.31;5099759;28;20444;-81